Main page
METAR-TAF:

METAR-TAF

Airports :

South Texas International Airport at Edinburg

Edinburg, Texas, United States

latitude: 26-26-31N, longitude: 098-07-46W, elevation: 79 ft

Current weather observation

The report was made 12 minutes ago, at 18:55 UTC
Wind 6 mph from the Southeast with gusts up to 17 mph
Temperature 99°F
Humidity 37%
Pressure 29.85 in. Hg
Visibility: 10 miles
Few clouds at a height of 6000 ft

METAR: KEBG 141855Z AUTO 13005G15KT 10SM FEW060 37/20 A2985 RMK AO2

Time: 14:07 (19:07 UTC)


TAF: missing

Weather observations and forecasts of more than 4000 airports (METAR and TAF reports).

The available stations are represented by yellow and red dots on the map.

Hover mouse over dot to see the name of the station.

Then click to see weather observations and forecasts.

To change the map : click on the green buttons with a black cross to zoom in, on the green button with a dash to zoom out, or on the green arrows for adjacent maps.


METAR-TAF: